createdAt,value
2023-05-04T00:01:40.229Z,30.20
2023-05-04T00:04:28.604Z,30.20
2023-05-04T00:07:18.588Z,29.37
2023-05-04T00:10:08.222Z,30.03
2023-05-04T00:12:56.849Z,29.67
2023-05-04T00:15:45.240Z,30.37
2023-05-04T00:18:33.654Z,31.77
2023-05-04T00:21:22.197Z,30.40
2023-05-04T00:24:11.953Z,28.60
2023-05-04T00:27:00.400Z,29.87
2023-05-04T00:29:48.828Z,30.77
2023-05-04T00:32:37.407Z,29.80
2023-05-04T00:35:26.295Z,28.57
2023-05-04T00:38:16.683Z,30.17
2023-05-04T00:41:06.817Z,29.30
2023-05-04T00:43:55.250Z,29.60
2023-05-04T00:46:43.873Z,29.00
2023-05-04T00:49:32.441Z,31.07
2023-05-04T00:52:22.329Z,29.00
2023-05-04T00:55:11.008Z,29.70
2023-05-04T00:58:00.749Z,29.77
2023-05-04T01:00:49.230Z,28.87
2023-05-04T01:03:37.819Z,29.33
2023-05-04T01:06:32.402Z,28.20
2023-05-04T01:09:24.881Z,28.87
2023-05-04T01:12:18.190Z,30.23
2023-05-04T01:15:10.777Z,28.37
2023-05-04T01:17:59.226Z,28.73
2023-05-04T01:20:47.933Z,26.33
2023-05-04T01:23:37.747Z,30.60
2023-05-04T01:26:29.134Z,29.23
2023-05-04T01:29:19.643Z,28.20
2023-05-04T01:32:09.277Z,29.60
2023-05-04T01:34:57.746Z,28.40
2023-05-04T01:37:46.194Z,28.30
2023-05-04T01:40:36.007Z,28.00
2023-05-04T01:43:24.561Z,27.10
2023-05-04T01:46:13.004Z,27.27
2023-05-04T01:49:01.633Z,26.87
2023-05-04T01:51:50.456Z,27.17
2023-05-04T01:54:39.026Z,26.67
2023-05-04T01:57:29.314Z,26.90
2023-05-04T02:00:17.863Z,29.23
2023-05-04T02:03:09.556Z,26.60
2023-05-04T02:05:58.160Z,25.77
2023-05-04T02:08:46.747Z,28.20
2023-05-04T02:11:35.102Z,28.17
2023-05-04T02:14:24.827Z,31.23
2023-05-04T02:17:13.223Z,26.07
2023-05-04T02:20:01.621Z,27.37
2023-05-04T02:22:50.031Z,26.67
2023-05-04T02:25:40.781Z,26.00
2023-05-04T02:28:30.775Z,26.33
2023-05-04T02:31:20.584Z,26.37
2023-05-04T02:34:08.982Z,28.13
2023-05-04T02:37:03.274Z,28.10
2023-05-04T02:39:52.513Z,26.70
2023-05-04T02:42:40.929Z,27.80
2023-05-04T02:45:29.318Z,25.73
2023-05-04T02:48:19.019Z,26.70
2023-05-04T02:51:07.505Z,28.27
2023-05-04T02:53:55.958Z,25.23
2023-05-04T02:56:44.341Z,27.47
2023-05-04T02:59:32.717Z,26.67
2023-05-04T03:02:21.235Z,26.43
2023-05-04T03:05:11.362Z,27.13
2023-05-04T03:07:59.741Z,26.53
2023-05-04T03:10:48.158Z,27.73
2023-05-04T03:13:37.423Z,25.40
2023-05-04T03:16:25.865Z,25.90
2023-05-04T03:19:14.349Z,24.77
2023-05-04T03:22:04.221Z,27.07
2023-05-04T03:24:52.773Z,26.97
2023-05-04T03:27:41.271Z,26.53
2023-05-04T03:30:29.781Z,26.03
2023-05-04T03:33:21.961Z,25.60
2023-05-04T03:36:10.432Z,24.97
2023-05-04T03:39:02.537Z,27.20
2023-05-04T03:41:52.284Z,25.93
2023-05-04T03:44:41.687Z,25.03
2023-05-04T03:47:30.732Z,25.30
2023-05-04T03:50:19.425Z,24.87
2023-05-04T03:53:07.892Z,26.00
2023-05-04T03:55:57.677Z,26.80
2023-05-04T03:58:46.195Z,25.53
2023-05-04T04:01:36.342Z,25.43
2023-05-04T04:04:24.881Z,25.67
2023-05-04T04:07:13.305Z,26.50
2023-05-04T04:10:01.904Z,25.40
2023-05-04T04:12:53.108Z,25.13
2023-05-04T04:15:44.862Z,25.50
2023-05-04T04:18:33.486Z,24.83
2023-05-04T04:21:21.927Z,26.07
2023-05-04T04:24:10.309Z,25.43
2023-05-04T04:26:58.670Z,24.37
2023-05-04T04:29:48.431Z,29.67
2023-05-04T04:32:37.619Z,26.37
2023-05-04T04:35:27.478Z,26.33
2023-05-04T04:38:15.887Z,24.73
2023-05-04T04:41:04.260Z,27.80
2023-05-04T04:43:52.631Z,25.87
2023-05-04T04:46:42.473Z,26.07
2023-05-04T04:49:30.883Z,25.20
2023-05-04T04:52:19.298Z,24.47
2023-05-04T04:55:08.741Z,29.03
2023-05-04T04:57:57.159Z,27.57
2023-05-04T05:00:45.723Z,25.57
2023-05-04T05:03:35.481Z,26.80
2023-05-04T05:06:24.035Z,27.97
2023-05-04T05:09:12.367Z,23.50
2023-05-04T05:12:01.085Z,22.57
2023-05-04T05:14:50.746Z,22.20
2023-05-04T05:17:39.394Z,21.40
2023-05-04T05:20:29.264Z,22.80
2023-05-04T05:23:18.022Z,22.70
2023-05-04T05:26:06.401Z,25.80
2023-05-04T05:28:54.876Z,25.80
2023-05-04T05:31:43.334Z,26.20
2023-05-04T05:34:31.825Z,28.30
2023-05-04T05:37:21.614Z,25.80
2023-05-04T05:40:10.813Z,31.60
2023-05-04T05:42:59.306Z,25.37
2023-05-04T05:45:47.620Z,26.80
2023-05-04T05:48:36.098Z,26.37
2023-05-04T05:51:24.445Z,26.70
2023-05-04T05:54:14.198Z,26.97
2023-05-04T05:57:02.844Z,26.00
2023-05-04T05:59:51.431Z,27.17
2023-05-04T06:02:39.979Z,27.40
2023-05-04T06:05:28.432Z,26.87
2023-05-04T06:08:16.830Z,26.60
2023-05-04T06:11:06.870Z,27.83
2023-05-04T06:13:55.311Z,27.90
2023-05-04T06:16:43.839Z,29.00
2023-05-04T06:19:35.350Z,28.00
2023-05-04T06:22:23.866Z,29.37
2023-05-04T06:25:12.559Z,27.50
2023-05-04T06:28:02.532Z,29.77
2023-05-04T06:30:50.993Z,28.50
2023-05-04T06:33:39.366Z,32.00
2023-05-04T06:36:27.777Z,29.17
2023-05-04T06:39:16.261Z,27.10
2023-05-04T06:42:04.811Z,29.30
2023-05-04T06:44:59.741Z,27.77
2023-05-04T06:47:48.237Z,29.73
2023-05-04T06:50:36.686Z,30.00
2023-05-04T06:53:25.096Z,29.50
2023-05-04T06:56:13.486Z,29.20
2023-05-04T06:59:01.923Z,31.47
2023-05-04T07:01:51.685Z,28.70
2023-05-04T07:04:40.341Z,28.30
2023-05-04T07:07:28.767Z,29.47
2023-05-04T07:10:17.494Z,28.07
2023-05-04T07:13:05.993Z,32.77
2023-05-04T07:15:54.426Z,30.37
2023-05-04T07:18:44.176Z,29.73
2023-05-04T07:21:32.608Z,32.47
2023-05-04T07:24:21.009Z,31.70
2023-05-04T07:27:10.591Z,31.07
2023-05-04T07:29:58.956Z,33.20
2023-05-04T07:32:47.494Z,33.67
2023-05-04T07:35:37.308Z,32.83
2023-05-04T07:38:26.161Z,33.27
2023-05-04T07:41:14.589Z,32.20
2023-05-04T07:44:05.664Z,34.10
2023-05-04T07:46:54.057Z,32.57
2023-05-04T07:49:42.556Z,32.90
2023-05-04T07:52:32.317Z,32.30
2023-05-04T07:55:20.779Z,31.37
2023-05-04T07:58:10.147Z,34.87
2023-05-04T08:00:58.667Z,34.50
2023-05-04T08:03:47.003Z,33.17
2023-05-04T08:06:39.365Z,34.97
2023-05-04T08:09:29.225Z,33.17
2023-05-04T08:12:17.607Z,36.93
2023-05-04T08:15:07.637Z,32.10
2023-05-04T08:17:55.984Z,36.23
2023-05-04T08:20:44.736Z,35.87
2023-05-04T08:23:33.882Z,36.80
2023-05-04T08:26:23.709Z,37.33
2023-05-04T08:29:12.134Z,38.40
2023-05-04T08:32:00.751Z,36.03
2023-05-04T08:34:49.132Z,38.67
2023-05-04T08:37:37.526Z,36.90
2023-05-04T08:40:25.973Z,36.93
2023-05-04T08:43:16.319Z,36.90
2023-05-04T08:46:05.274Z,36.90
2023-05-04T08:48:53.777Z,38.40
2023-05-04T08:51:43.586Z,38.97
2023-05-04T08:54:32.142Z,38.70
2023-05-04T08:57:21.029Z,38.80
2023-05-04T09:00:13.441Z,40.67
2023-05-04T09:03:03.766Z,37.87
2023-05-04T09:05:52.931Z,39.03
2023-05-04T09:08:41.351Z,41.00
2023-05-04T09:11:29.721Z,40.20
2023-05-04T09:14:18.057Z,42.80
2023-05-04T09:17:16.517Z,41.23
2023-05-04T09:20:05.706Z,40.37
2023-05-04T09:23:06.984Z,40.80
2023-05-04T09:25:56.707Z,43.23
2023-05-04T09:28:45.346Z,44.53
2023-05-04T09:31:43.645Z,39.87
2023-05-04T09:34:33.700Z,42.30
2023-05-04T09:37:22.665Z,41.17
2023-05-04T09:40:13.068Z,43.53
2023-05-04T09:43:01.627Z,45.00
2023-05-04T09:45:50.304Z,40.93
2023-05-04T09:48:38.704Z,42.13
2023-05-04T09:51:28.455Z,42.73
2023-05-04T09:54:17.906Z,41.97
2023-05-04T09:57:11.643Z,47.77
2023-05-04T10:00:00.007Z,43.60
2023-05-04T10:02:49.353Z,42.70
2023-05-04T10:05:39.994Z,42.77
2023-05-04T10:08:29.902Z,41.77
2023-05-04T10:11:20.652Z,43.70
2023-05-04T10:14:09.099Z,41.90
2023-05-04T10:17:03.295Z,44.60
2023-05-04T10:20:05.468Z,42.37
2023-05-04T10:23:15.363Z,50.50
2023-05-04T10:26:23.489Z,42.97
2023-05-04T10:29:23.272Z,43.57
2023-05-04T10:32:19.042Z,43.00
2023-05-04T10:35:08.734Z,44.57
2023-05-04T10:37:57.791Z,43.07
2023-05-04T10:40:49.002Z,42.17
2023-05-04T10:43:38.807Z,44.30
2023-05-04T10:46:27.979Z,44.00
2023-05-04T10:49:17.932Z,44.40
2023-05-04T10:52:07.994Z,43.27
2023-05-04T10:55:00.846Z,43.80
2023-05-04T10:57:50.828Z,43.87
2023-05-04T11:00:41.625Z,42.80
2023-05-04T11:03:40.977Z,45.00
2023-05-04T11:06:29.491Z,42.77
2023-05-04T11:09:17.875Z,43.77
2023-05-04T11:12:06.616Z,44.37
2023-05-04T11:15:05.207Z,43.57
2023-05-04T11:17:55.216Z,42.87
2023-05-04T11:20:43.694Z,43.70
2023-05-04T11:23:32.604Z,44.17
2023-05-04T11:26:20.982Z,44.60
2023-05-04T11:29:13.799Z,43.93
2023-05-04T11:32:02.259Z,43.80
2023-05-04T11:34:52.018Z,44.33
2023-05-04T11:37:41.345Z,42.33
2023-05-04T11:40:29.707Z,43.97
2023-05-04T11:43:18.427Z,46.37
2023-05-04T11:46:07.819Z,43.70
2023-05-04T11:48:56.238Z,44.67
2023-05-04T11:51:46.358Z,43.70
2023-05-04T11:54:34.902Z,43.67
2023-05-04T11:57:23.500Z,43.77
2023-05-04T12:00:13.207Z,44.33
2023-05-04T12:03:02.181Z,45.57
2023-05-04T12:05:52.054Z,64.67
2023-05-04T12:08:43.410Z,43.00
2023-05-04T12:11:31.849Z,44.63
2023-05-04T12:14:20.780Z,43.17
2023-05-04T12:17:09.129Z,42.67
2023-05-04T12:19:58.189Z,43.33
2023-05-04T12:22:46.538Z,42.80
2023-05-04T12:25:44.174Z,41.93
2023-05-04T12:28:40.708Z,43.00
2023-05-04T12:31:30.416Z,42.00
2023-05-04T12:34:18.948Z,45.03
2023-05-04T12:37:07.440Z,41.50
2023-05-04T12:39:56.142Z,43.30
2023-05-04T12:42:45.834Z,43.70
2023-05-04T12:45:34.449Z,43.93
2023-05-04T12:48:22.896Z,42.10
2023-05-04T12:51:11.270Z,40.90
2023-05-04T12:53:59.652Z,38.90
2023-05-04T12:56:48.026Z,40.20
2023-05-04T12:59:38.004Z,41.67
2023-05-04T13:02:26.444Z,38.90
2023-05-04T13:05:15.989Z,41.30
2023-05-04T13:08:04.400Z,40.13
2023-05-04T13:10:52.854Z,40.73
2023-05-04T13:13:41.425Z,40.90
2023-05-04T13:16:31.847Z,38.80
2023-05-04T13:19:20.378Z,39.20
2023-05-04T13:22:08.710Z,38.93
2023-05-04T13:24:57.086Z,39.30
2023-05-04T13:27:45.454Z,38.50
2023-05-04T13:30:33.807Z,38.43
2023-05-04T13:33:29.334Z,42.60
2023-05-04T13:36:18.760Z,37.50
2023-05-04T13:39:07.133Z,37.30
2023-05-04T13:41:55.934Z,38.17
2023-05-04T13:44:45.659Z,38.00
2023-05-04T13:47:36.968Z,37.87
2023-05-04T13:50:26.816Z,38.17
2023-05-04T13:53:15.319Z,39.03
2023-05-04T13:56:03.963Z,38.20
2023-05-04T13:58:53.884Z,37.43
2023-05-04T14:01:42.353Z,38.13
2023-05-04T14:04:31.844Z,38.87
2023-05-04T14:07:21.552Z,38.07
2023-05-04T14:10:10.883Z,37.77
2023-05-04T14:12:59.373Z,38.90
2023-05-04T14:15:48.337Z,37.37
2023-05-04T14:18:37.001Z,37.27
2023-05-04T14:21:25.467Z,36.33
2023-05-04T14:24:15.188Z,37.07
2023-05-04T14:27:03.603Z,37.00
2023-05-04T14:29:53.172Z,37.50
2023-05-04T14:32:42.097Z,38.00
2023-05-04T14:35:30.534Z,37.40
2023-05-04T14:38:18.920Z,36.80
2023-05-04T14:41:08.822Z,36.00
2023-05-04T14:43:57.246Z,37.13
2023-05-04T14:46:45.630Z,37.10
2023-05-04T14:49:37.306Z,37.10
2023-05-04T14:52:26.811Z,38.63
2023-05-04T14:55:15.386Z,36.40
2023-05-04T14:58:05.435Z,36.47
2023-05-04T15:00:54.650Z,35.30
2023-05-04T15:03:43.166Z,36.77
2023-05-04T15:06:32.801Z,36.13
2023-05-04T15:09:21.203Z,35.87
2023-05-04T15:12:09.656Z,36.53
2023-05-04T15:14:59.435Z,36.10
2023-05-04T15:17:47.833Z,36.07
2023-05-04T15:20:38.230Z,36.50
2023-05-04T15:23:26.602Z,36.57
2023-05-04T15:26:15.092Z,35.07
2023-05-04T15:29:03.997Z,37.17
2023-05-04T15:31:53.923Z,35.97
2023-05-04T15:34:45.847Z,35.67
2023-05-04T15:37:39.229Z,36.93
2023-05-04T15:40:27.659Z,35.17
2023-05-04T15:43:16.210Z,36.77
2023-05-04T15:46:04.679Z,35.90
2023-05-04T15:48:54.677Z,36.70
2023-05-04T15:51:43.166Z,45.37
2023-05-04T15:54:31.605Z,35.80
2023-05-04T15:57:20.055Z,35.73
2023-05-04T16:00:09.549Z,36.30
2023-05-04T16:02:57.981Z,37.57
2023-05-04T16:05:47.807Z,36.67
2023-05-04T16:08:36.516Z,36.37
2023-05-04T16:11:24.986Z,36.20
2023-05-04T16:14:14.220Z,36.50
2023-05-04T16:17:02.727Z,36.43
2023-05-04T16:19:51.101Z,36.30
2023-05-04T16:22:40.851Z,37.17
2023-05-04T16:25:29.252Z,36.87
2023-05-04T16:28:17.658Z,36.23
2023-05-04T16:31:06.301Z,36.70
2023-05-04T16:33:54.700Z,35.67
2023-05-04T16:36:43.791Z,37.77
2023-05-04T16:39:34.402Z,36.57
2023-05-04T16:42:22.762Z,35.73
2023-05-04T16:45:13.514Z,36.37
2023-05-04T16:48:01.996Z,37.37
2023-05-04T16:50:50.518Z,37.17
2023-05-04T16:53:38.838Z,37.80
2023-05-04T16:56:28.559Z,37.60
2023-05-04T16:59:16.907Z,39.77
2023-05-04T17:02:05.383Z,38.17
2023-05-04T17:04:54.322Z,37.40
2023-05-04T17:07:43.507Z,37.30
2023-05-04T17:10:32.000Z,37.10
2023-05-04T17:13:21.843Z,39.17
2023-05-04T17:16:10.612Z,53.23
2023-05-04T17:18:59.075Z,38.30
2023-05-04T17:21:47.573Z,38.17
2023-05-04T17:24:36.177Z,37.70
2023-05-04T17:27:24.562Z,38.60
2023-05-04T17:30:14.879Z,38.30
2023-05-04T17:33:03.311Z,39.07
2023-05-04T17:35:51.794Z,39.13
2023-05-04T17:38:40.322Z,40.60
2023-05-04T17:41:29.027Z,38.53
2023-05-04T17:44:17.543Z,40.10
2023-05-04T17:47:07.797Z,41.23
2023-05-04T17:49:56.216Z,39.13
2023-05-04T17:52:44.642Z,40.00
2023-05-04T17:55:33.008Z,38.40
2023-05-04T17:58:21.743Z,39.50
2023-05-04T18:01:10.387Z,39.80
2023-05-04T18:04:03.157Z,39.77
2023-05-04T18:06:51.522Z,39.73
2023-05-04T18:09:39.948Z,41.90
2023-05-04T18:12:28.403Z,40.67
2023-05-04T18:15:18.445Z,40.00
2023-05-04T18:18:06.929Z,41.53
2023-05-04T18:20:58.551Z,40.93
2023-05-04T18:23:47.218Z,43.53
2023-05-04T18:26:35.913Z,41.13
2023-05-04T18:29:24.771Z,39.80
2023-05-04T18:32:13.240Z,41.33
2023-05-04T18:35:01.781Z,42.03
2023-05-04T18:37:51.761Z,40.57
2023-05-04T18:40:40.150Z,41.50
2023-05-04T18:43:28.564Z,41.30
2023-05-04T18:46:17.024Z,41.23
2023-05-04T18:49:05.448Z,42.30
2023-05-04T18:51:53.817Z,41.17
2023-05-04T18:54:43.665Z,42.20
2023-05-04T18:57:32.013Z,43.27
2023-05-04T19:00:21.467Z,44.60
2023-05-04T19:03:09.879Z,41.20
2023-05-04T19:05:58.306Z,41.47
2023-05-04T19:08:46.694Z,40.20
2023-05-04T19:11:36.546Z,40.30
2023-05-04T19:14:25.355Z,41.13
2023-05-04T19:17:14.742Z,41.27
2023-05-04T19:20:03.423Z,41.03
2023-05-04T19:22:51.882Z,41.47
2023-05-04T19:25:40.587Z,41.47
2023-05-04T19:28:30.349Z,41.70
2023-05-04T19:31:18.800Z,41.90
2023-05-04T19:34:07.213Z,40.80
2023-05-04T19:36:55.717Z,42.10
2023-05-04T19:39:44.260Z,41.43
2023-05-04T19:42:32.714Z,42.57
2023-05-04T19:45:22.559Z,41.70
2023-05-04T19:48:13.072Z,40.40
2023-05-04T19:51:02.083Z,39.97
2023-05-04T19:53:50.434Z,41.17
2023-05-04T19:56:38.773Z,40.07
2023-05-04T19:59:27.212Z,39.87
2023-05-04T20:02:16.961Z,43.60
2023-05-04T20:05:05.713Z,41.43
2023-05-04T20:07:54.084Z,41.00
2023-05-04T20:10:42.813Z,40.30
2023-05-04T20:13:31.257Z,38.93
2023-05-04T20:16:20.758Z,41.13
2023-05-04T20:19:10.544Z,40.00
2023-05-04T20:21:58.912Z,40.93
2023-05-04T20:24:47.325Z,40.10
2023-05-04T20:27:35.794Z,40.57
2023-05-04T20:30:28.081Z,39.83
2023-05-04T20:33:16.503Z,39.13
2023-05-04T20:36:07.312Z,38.07
2023-05-04T20:38:56.394Z,38.87
2023-05-04T20:41:44.812Z,36.97
2023-05-04T20:44:33.200Z,39.77
2023-05-04T20:47:21.847Z,38.03
2023-05-04T20:50:12.058Z,37.20
2023-05-04T20:53:02.178Z,38.23
2023-05-04T20:55:50.602Z,37.40
2023-05-04T20:58:39.272Z,37.97
2023-05-04T21:01:29.591Z,37.57
2023-05-04T21:04:17.987Z,37.97
2023-05-04T21:07:06.387Z,36.80
2023-05-04T21:09:58.765Z,37.40
2023-05-04T21:12:47.387Z,37.17
2023-05-04T21:15:36.452Z,39.77
2023-05-04T21:18:24.803Z,36.90
2023-05-04T21:21:13.205Z,38.70
2023-05-04T21:24:01.588Z,34.73
2023-05-04T21:26:51.501Z,36.53
2023-05-04T21:29:39.826Z,37.03
2023-05-04T21:32:28.305Z,36.07
2023-05-04T21:35:21.003Z,35.57
2023-05-04T21:38:09.415Z,36.40
2023-05-04T21:40:57.780Z,35.97
2023-05-04T21:43:47.522Z,34.43
2023-05-04T21:46:35.926Z,35.80
2023-05-04T21:49:24.647Z,35.40
2023-05-04T21:52:13.070Z,33.57
2023-05-04T21:55:01.459Z,34.10
2023-05-04T21:57:49.914Z,34.37
2023-05-04T22:00:39.645Z,32.80
2023-05-04T22:03:29.585Z,34.33
2023-05-04T22:06:18.866Z,33.70
2023-05-04T22:09:07.227Z,32.67
2023-05-04T22:11:55.800Z,32.37
2023-05-04T22:14:44.170Z,33.33
2023-05-04T22:17:33.984Z,33.10
2023-05-04T22:20:23.434Z,32.40
2023-05-04T22:23:12.035Z,32.40
2023-05-04T22:26:00.412Z,34.10
2023-05-04T22:28:48.815Z,31.47
2023-05-04T22:31:37.186Z,34.80
2023-05-04T22:34:26.868Z,31.53
2023-05-04T22:37:15.247Z,32.70
2023-05-04T22:40:04.607Z,30.20
2023-05-04T22:42:53.061Z,39.40
2023-05-04T22:45:41.409Z,32.17
2023-05-04T22:48:29.968Z,31.47
2023-05-04T22:51:19.710Z,31.07
2023-05-04T22:54:08.051Z,32.57
2023-05-04T22:56:56.393Z,30.50
2023-05-04T22:59:44.737Z,33.73
2023-05-04T23:02:33.164Z,29.37
2023-05-04T23:05:21.804Z,30.57
2023-05-04T23:08:11.521Z,29.60
2023-05-04T23:10:59.878Z,31.03
2023-05-04T23:13:48.197Z,30.57
2023-05-04T23:16:36.558Z,29.67
2023-05-04T23:19:24.900Z,30.47
2023-05-04T23:22:13.436Z,30.07
2023-05-04T23:25:03.273Z,29.07
2023-05-04T23:27:51.636Z,28.63
2023-05-04T23:30:40.033Z,28.47
2023-05-04T23:33:28.370Z,29.60
2023-05-04T23:36:16.845Z,29.37
2023-05-04T23:39:05.196Z,29.20
2023-05-04T23:41:55.163Z,28.80
2023-05-04T23:44:43.561Z,29.40
2023-05-04T23:47:32.008Z,28.60
2023-05-04T23:50:20.440Z,30.27
2023-05-04T23:53:08.806Z,29.30
2023-05-04T23:56:03.384Z,28.87
2023-05-04T23:58:53.972Z,29.90
